createdAt,value
2018-11-12T00:01:14.982Z,15.87
2018-11-12T00:03:43.439Z,15.30
2018-11-12T00:06:11.952Z,14.50
2018-11-12T00:08:40.403Z,16.13
2018-11-12T00:11:08.819Z,15.40
2018-11-12T00:13:37.319Z,14.77
2018-11-12T00:16:06.266Z,14.13
2018-11-12T00:18:34.718Z,14.10
2018-11-12T00:21:03.159Z,15.17
2018-11-12T00:23:31.607Z,13.77
2018-11-12T00:26:00.044Z,13.07
2018-11-12T00:28:28.519Z,12.70
2018-11-12T00:30:56.928Z,14.37
2018-11-12T00:33:25.384Z,13.60
2018-11-12T00:35:53.810Z,13.80
2018-11-12T00:38:22.275Z,12.97
2018-11-12T00:40:50.708Z,14.20
2018-11-12T00:43:19.165Z,13.87
2018-11-12T00:45:47.635Z,13.87
2018-11-12T00:48:16.100Z,13.70
2018-11-12T00:50:44.578Z,14.13
2018-11-12T00:53:13.032Z,13.23
2018-11-12T00:55:41.497Z,14.27
2018-11-12T00:58:09.923Z,13.97
2018-11-12T01:00:38.367Z,13.23
2018-11-12T01:03:06.789Z,14.30
2018-11-12T01:05:35.238Z,13.30
2018-11-12T01:08:03.663Z,13.53
2018-11-12T01:10:32.115Z,13.83
2018-11-12T01:13:00.587Z,14.33
2018-11-12T01:15:29.038Z,13.10
2018-11-12T01:17:57.458Z,12.83
2018-11-12T01:20:25.899Z,13.23
2018-11-12T01:22:54.340Z,13.07
2018-11-12T01:25:22.802Z,13.33
2018-11-12T01:27:51.256Z,12.43
2018-11-12T01:30:19.962Z,12.93
2018-11-12T01:32:48.531Z,13.17
2018-11-12T01:35:17.950Z,13.17
2018-11-12T01:37:46.471Z,13.20
2018-11-12T01:40:15.621Z,12.37
2018-11-12T01:42:44.475Z,12.03
2018-11-12T01:45:15.358Z,12.87
2018-11-12T01:47:45.049Z,12.67
2018-11-12T01:50:13.875Z,13.10
2018-11-12T01:52:43.250Z,11.73
2018-11-12T01:55:12.824Z,12.53
2018-11-12T01:57:41.321Z,12.67
2018-11-12T02:00:12.863Z,13.10
2018-11-12T02:02:41.674Z,13.07
2018-11-12T02:05:10.458Z,11.93
2018-11-12T02:07:38.954Z,12.97
2018-11-12T02:10:08.958Z,12.17
2018-11-12T02:12:37.746Z,11.83
2018-11-12T02:15:08.368Z,10.93
2018-11-12T02:17:36.816Z,11.00
2018-11-12T02:20:06.571Z,12.00
2018-11-12T02:22:35.048Z,12.43
2018-11-12T02:25:03.623Z,12.20
2018-11-12T02:27:32.093Z,12.53
2018-11-12T02:30:00.523Z,12.10
2018-11-12T02:32:28.982Z,12.47
2018-11-12T02:34:57.395Z,13.10
2018-11-12T02:37:25.839Z,12.57
2018-11-12T02:39:54.291Z,11.73
2018-11-12T02:42:22.771Z,12.20
2018-11-12T02:44:51.242Z,11.57
2018-11-12T02:47:19.699Z,11.87
2018-11-12T02:49:48.157Z,11.43
2018-11-12T02:52:16.586Z,11.63
2018-11-12T02:54:45.051Z,11.57
2018-11-12T02:57:13.507Z,10.53
2018-11-12T02:59:41.927Z,11.47
2018-11-12T03:02:10.358Z,12.07
2018-11-12T03:04:38.815Z,10.73
2018-11-12T03:07:07.276Z,10.33
2018-11-12T03:09:35.731Z,10.90
2018-11-12T03:12:04.152Z,10.17
2018-11-12T03:14:32.623Z,9.97
2018-11-12T03:17:01.059Z,10.20
2018-11-12T03:19:29.514Z,9.57
2018-11-12T03:21:57.925Z,10.07
2018-11-12T03:24:26.374Z,9.83
2018-11-12T03:26:54.791Z,9.33
2018-11-12T03:29:23.267Z,9.23
2018-11-12T03:31:51.686Z,9.67
2018-11-12T03:34:20.144Z,10.00
2018-11-12T03:36:48.555Z,9.83
2018-11-12T03:39:16.951Z,9.37
2018-11-12T03:41:45.395Z,9.50
2018-11-12T03:44:13.822Z,9.33
2018-11-12T03:46:42.254Z,9.43
2018-11-12T03:49:10.655Z,9.80
2018-11-12T03:51:39.122Z,10.03
2018-11-12T03:54:07.546Z,8.73
2018-11-12T03:56:35.979Z,8.53
2018-11-12T03:59:04.907Z,8.47
2018-11-12T04:01:38.450Z,8.73
2018-11-12T04:04:06.874Z,8.23
2018-11-12T04:06:35.369Z,8.57
2018-11-12T04:09:04.970Z,8.47
2018-11-12T04:11:33.406Z,7.50
2018-11-12T04:14:01.847Z,8.60
2018-11-12T04:16:30.286Z,7.73
2018-11-12T04:18:58.699Z,7.93
2018-11-12T04:21:27.148Z,7.57
2018-11-12T04:23:55.603Z,6.70
2018-11-12T04:26:24.040Z,8.50
2018-11-12T04:28:52.447Z,7.67
2018-11-12T04:31:20.908Z,8.33
2018-11-12T04:33:49.316Z,8.00
2018-11-12T04:36:17.722Z,8.10
2018-11-12T04:38:46.180Z,9.07
2018-11-12T04:41:14.583Z,9.10
2018-11-12T04:43:43.031Z,8.83
2018-11-12T04:46:11.446Z,8.30
2018-11-12T04:48:40.015Z,8.87
2018-11-12T04:51:08.442Z,8.70
2018-11-12T04:53:36.978Z,9.17
2018-11-12T04:56:05.534Z,8.47
2018-11-12T04:58:33.966Z,8.20
2018-11-12T05:01:02.599Z,8.50
2018-11-12T05:03:31.048Z,8.10
2018-11-12T05:05:59.492Z,8.57
2018-11-12T05:08:27.931Z,7.60
2018-11-12T05:10:56.350Z,8.37
2018-11-12T05:13:24.822Z,8.13
2018-11-12T05:15:53.231Z,7.90
2018-11-12T05:18:21.677Z,8.20
2018-11-12T05:20:50.094Z,8.13
2018-11-12T05:23:18.567Z,7.70
2018-11-12T05:25:46.981Z,8.60
2018-11-12T05:28:15.447Z,8.47
2018-11-12T05:30:43.859Z,7.87
2018-11-12T05:33:12.327Z,8.47
2018-11-12T05:35:40.767Z,7.10
2018-11-12T05:38:09.208Z,7.63
2018-11-12T05:40:37.634Z,7.00
2018-11-12T05:43:06.039Z,6.17
2018-11-12T05:45:34.463Z,5.20
2018-11-12T05:48:02.861Z,5.10
2018-11-12T05:50:32.034Z,5.13
2018-11-12T05:53:02.726Z,5.33
2018-11-12T05:55:31.654Z,6.13
2018-11-12T05:58:00.411Z,4.73
2018-11-12T06:00:37.029Z,4.60
2018-11-12T06:03:05.672Z,4.60
2018-11-12T06:05:34.790Z,4.77
2018-11-12T06:08:03.556Z,4.27
2018-11-12T06:10:33.001Z,4.60
2018-11-12T06:13:01.474Z,4.27
2018-11-12T06:15:29.915Z,4.50
2018-11-12T06:17:58.336Z,4.50
2018-11-12T06:20:29.055Z,4.03
2018-11-12T06:22:57.501Z,3.60
2018-11-12T06:25:28.298Z,3.37
2018-11-12T06:27:57.130Z,3.70
2018-11-12T06:30:27.207Z,3.87
2018-11-12T06:32:55.619Z,4.03
2018-11-12T06:35:24.062Z,3.67
2018-11-12T06:37:53.093Z,4.67
2018-11-12T06:40:22.655Z,4.10
2018-11-12T06:42:51.428Z,4.03
2018-11-12T06:45:21.099Z,4.07
2018-11-12T06:47:50.546Z,3.60
2018-11-12T06:50:23.306Z,3.70
2018-11-12T06:52:51.806Z,4.27
2018-11-12T06:55:20.662Z,4.27
2018-11-12T06:57:49.474Z,4.20
2018-11-12T07:00:21.972Z,3.73
2018-11-12T07:02:50.443Z,5.00
2018-11-12T07:05:19.115Z,4.70
2018-11-12T07:07:47.589Z,4.57
2018-11-12T07:10:17.277Z,4.07
2018-11-12T07:12:46.607Z,3.20
2018-11-12T07:15:17.102Z,2.90
2018-11-12T07:17:45.586Z,2.80
2018-11-12T07:20:15.509Z,3.40
2018-11-12T07:22:43.989Z,2.80
2018-11-12T07:25:13.486Z,2.33
2018-11-12T07:27:41.874Z,2.73
2018-11-12T07:30:16.830Z,2.60
2018-11-12T07:32:45.842Z,2.80
2018-11-12T07:35:15.203Z,2.77
2018-11-12T07:37:44.839Z,2.20
2018-11-12T07:40:14.030Z,2.70
2018-11-12T07:42:42.778Z,2.73
2018-11-12T07:45:13.547Z,2.50
2018-11-12T07:47:43.032Z,2.60
2018-11-12T07:50:15.444Z,2.63
2018-11-12T07:52:43.976Z,3.07
2018-11-12T07:55:14.433Z,2.80
2018-11-12T07:57:43.413Z,2.87
2018-11-12T08:00:14.563Z,2.40
2018-11-12T08:02:43.948Z,3.47
2018-11-12T08:05:12.971Z,2.37
2018-11-12T08:07:42.064Z,2.23
2018-11-12T08:10:15.368Z,2.20
2018-11-12T08:12:44.601Z,1.80
2018-11-12T08:15:14.390Z,2.63
2018-11-12T08:17:43.130Z,2.37
2018-11-12T08:20:16.578Z,3.37
2018-11-12T08:22:46.083Z,2.30
2018-11-12T08:25:14.603Z,1.63
2018-11-12T08:27:43.703Z,2.10
2018-11-12T08:30:17.331Z,2.03
2018-11-12T08:32:46.724Z,2.10
2018-11-12T08:35:15.847Z,2.30
2018-11-12T08:37:44.697Z,2.20
2018-11-12T08:40:15.569Z,2.37
2018-11-12T08:42:44.307Z,2.57
2018-11-12T08:45:13.304Z,2.73
2018-11-12T08:47:42.713Z,2.57
2018-11-12T08:50:13.295Z,2.40
2018-11-12T08:52:43.216Z,3.07
2018-11-12T08:55:14.234Z,2.53
2018-11-12T08:57:43.825Z,2.40
2018-11-12T09:00:12.890Z,2.57
2018-11-12T09:02:41.626Z,5.67
2018-11-12T09:05:12.219Z,2.53
2018-11-12T09:07:41.864Z,2.93
2018-11-12T09:10:17.085Z,3.40
2018-11-12T09:12:45.994Z,5.13
2018-11-12T09:15:14.852Z,7.40
2018-11-12T09:17:44.088Z,4.00
2018-11-12T09:20:15.967Z,3.13
2018-11-12T09:22:44.488Z,4.33
2018-11-12T09:25:14.719Z,7.13
2018-11-12T09:27:43.314Z,6.40
2018-11-12T09:30:13.815Z,4.43
2018-11-12T09:32:42.787Z,3.50
2018-11-12T09:35:13.431Z,4.40
2018-11-12T09:37:42.579Z,6.37
2018-11-12T09:40:15.105Z,5.37
2018-11-12T09:42:43.793Z,4.60
2018-11-12T09:45:12.395Z,5.33
2018-11-12T09:47:41.693Z,4.17
2018-11-12T09:50:13.265Z,3.90
2018-11-12T09:52:43.068Z,4.93
2018-11-12T09:55:12.478Z,6.77
2018-11-12T09:57:41.846Z,5.43
2018-11-12T10:00:12.968Z,3.67
2018-11-12T10:02:42.964Z,4.10
2018-11-12T10:05:11.645Z,3.30
2018-11-12T10:07:40.699Z,2.90
2018-11-12T10:10:28.226Z,4.17
2018-11-12T10:12:56.028Z,4.30
2018-11-12T10:15:24.533Z,3.77
2018-11-12T10:17:53.206Z,3.93
2018-11-12T10:20:19.753Z,3.53
2018-11-12T10:22:48.879Z,3.77
2018-11-12T10:25:17.798Z,4.30
2018-11-12T10:27:46.210Z,4.80
2018-11-12T10:30:14.714Z,4.10
2018-11-12T10:32:43.131Z,4.97
2018-11-12T10:35:11.832Z,4.90
2018-11-12T10:37:41.092Z,4.17
2018-11-12T10:40:15.530Z,3.63
2018-11-12T10:42:44.586Z,3.50
2018-11-12T10:45:13.224Z,4.53
2018-11-12T10:47:41.822Z,3.53
2018-11-12T10:50:10.283Z,3.90
2018-11-12T10:52:38.714Z,4.60
2018-11-12T10:55:10.280Z,3.77
2018-11-12T10:57:38.558Z,4.13
2018-11-12T11:00:15.399Z,4.80
2018-11-12T11:02:49.006Z,4.50
2018-11-12T11:05:17.441Z,4.17
2018-11-12T11:07:45.906Z,6.23
2018-11-12T11:10:14.310Z,4.60
2018-11-12T11:12:43.622Z,4.90
2018-11-12T11:15:12.160Z,4.07
2018-11-12T11:17:40.632Z,4.20
2018-11-12T11:20:09.090Z,4.47
2018-11-12T11:22:37.529Z,10.20
2018-11-12T11:25:06.063Z,4.60
2018-11-12T11:27:34.539Z,4.50
2018-11-12T11:30:03.020Z,3.90
2018-11-12T11:32:31.466Z,3.70
2018-11-12T11:34:59.895Z,3.83
2018-11-12T11:37:28.382Z,4.13
2018-11-12T11:39:56.831Z,3.80
2018-11-12T11:42:28.029Z,4.67
2018-11-12T11:44:56.490Z,4.57
2018-11-12T11:47:24.998Z,3.20
2018-11-12T11:49:53.359Z,3.47
2018-11-12T11:52:21.773Z,2.70
2018-11-12T11:54:50.207Z,2.90
2018-11-12T11:57:18.648Z,3.20
2018-11-12T11:59:47.075Z,2.80
2018-11-12T12:02:15.617Z,2.60
2018-11-12T12:04:43.950Z,2.87
2018-11-12T12:07:12.443Z,2.33
2018-11-12T12:09:40.886Z,4.30
2018-11-12T12:12:09.323Z,2.80
2018-11-12T12:14:37.803Z,2.73
2018-11-12T12:17:06.290Z,2.33
2018-11-12T12:19:34.735Z,2.07
2018-11-12T12:22:03.150Z,2.20
2018-11-12T12:24:31.648Z,2.20
2018-11-12T12:27:00.035Z,1.80
2018-11-12T12:29:28.571Z,2.10
2018-11-12T12:31:56.970Z,2.60
2018-11-12T12:34:25.386Z,2.00
2018-11-12T12:36:54.273Z,2.00
2018-11-12T12:39:22.653Z,2.00
2018-11-12T12:41:51.142Z,2.20
2018-11-12T12:44:19.645Z,2.00
2018-11-12T12:46:48.063Z,2.20
2018-11-12T12:49:16.643Z,2.07
2018-11-12T12:51:45.118Z,2.87
2018-11-12T12:54:13.527Z,3.70
2018-11-12T12:56:41.959Z,4.93
2018-11-12T12:59:10.378Z,3.57
2018-11-12T13:01:38.934Z,2.90
2018-11-12T13:04:07.254Z,2.80
2018-11-12T13:06:35.722Z,2.70
2018-11-12T13:09:04.566Z,5.90
2018-11-12T13:11:33.007Z,3.77
2018-11-12T13:14:01.474Z,3.47
2018-11-12T13:16:29.916Z,3.10
2018-11-12T13:18:58.322Z,3.67
2018-11-12T13:21:27.028Z,2.73
2018-11-12T13:23:55.324Z,2.40
2018-11-12T13:26:23.796Z,2.13
2018-11-12T13:28:52.233Z,2.77
2018-11-12T13:31:20.663Z,2.93
2018-11-12T13:33:49.105Z,2.50
2018-11-12T13:36:17.509Z,3.90
2018-11-12T13:38:45.975Z,4.03
2018-11-12T13:41:14.407Z,4.20
2018-11-12T13:43:42.852Z,4.57
2018-11-12T13:46:11.319Z,4.27
2018-11-12T13:48:39.770Z,5.00
2018-11-12T13:51:08.198Z,5.70
2018-11-12T13:53:36.650Z,6.23
2018-11-12T13:56:05.618Z,4.77
2018-11-12T13:58:34.047Z,5.10
2018-11-12T14:01:02.458Z,4.93
2018-11-12T14:03:30.958Z,6.37
2018-11-12T14:05:59.445Z,6.33
2018-11-12T14:08:27.892Z,5.90
2018-11-12T14:10:56.334Z,5.03
2018-11-12T14:13:24.810Z,5.53
2018-11-12T14:15:53.202Z,5.90
2018-11-12T14:18:21.679Z,5.57
2018-11-12T14:20:50.140Z,5.47
2018-11-12T14:23:18.566Z,5.77
2018-11-12T14:25:47.083Z,6.00
2018-11-12T14:28:15.662Z,5.87
2018-11-12T14:30:44.079Z,7.45
2018-11-12T14:33:12.599Z,7.50
2018-11-12T14:35:41.134Z,7.47
2018-11-12T14:38:09.411Z,8.23
2018-11-12T14:40:37.858Z,8.50
2018-11-12T14:43:06.298Z,8.63
2018-11-12T14:45:34.744Z,9.00
2018-11-12T14:48:03.203Z,9.38
2018-11-12T14:50:31.646Z,8.43
2018-11-12T14:53:00.043Z,9.10
2018-11-12T14:55:28.470Z,9.30
2018-11-12T14:57:56.882Z,9.73
2018-11-12T15:00:26.446Z,9.90
2018-11-12T15:02:55.470Z,9.65
2018-11-12T15:05:24.994Z,9.30
2018-11-12T15:07:53.445Z,9.33
2018-11-12T15:10:21.923Z,8.63
2018-11-12T15:12:50.711Z,9.23
2018-11-12T15:15:19.304Z,10.20
2018-11-12T15:17:47.710Z,9.73
2018-11-12T15:20:17.317Z,10.00
2018-11-12T15:22:45.974Z,10.20
2018-11-12T15:25:16.190Z,10.67
2018-11-12T15:27:45.013Z,11.00
2018-11-12T15:30:15.128Z,10.57
2018-11-12T15:32:44.220Z,10.13
2018-11-12T15:35:13.286Z,10.20
2018-11-12T15:37:42.595Z,10.83
2018-11-12T15:40:11.788Z,10.67
2018-11-12T15:42:40.821Z,11.13
2018-11-12T15:45:13.763Z,11.87
2018-11-12T15:47:42.894Z,12.27
2018-11-12T15:50:16.158Z,11.77
2018-11-12T15:52:45.181Z,12.17
2018-11-12T15:55:13.609Z,11.30
2018-11-12T15:57:42.190Z,12.70
2018-11-12T16:00:13.563Z,11.90
2018-11-12T16:02:42.060Z,11.77
2018-11-12T16:05:11.335Z,12.13
2018-11-12T16:07:39.830Z,12.43
2018-11-12T16:10:13.756Z,11.63
2018-11-12T16:12:42.350Z,11.93
2018-11-12T16:15:11.722Z,11.93
2018-11-12T16:17:46.505Z,12.77
2018-11-12T16:20:23.005Z,12.77
2018-11-12T16:22:52.038Z,12.43
2018-11-12T16:25:20.893Z,12.50
2018-11-12T16:27:49.343Z,13.83
2018-11-12T16:30:17.766Z,13.40
2018-11-12T16:32:46.794Z,12.77
2018-11-12T16:35:17.099Z,13.93
2018-11-12T16:37:46.282Z,14.67
2018-11-12T16:40:14.745Z,14.27
2018-11-12T16:42:44.137Z,15.43
2018-11-12T16:45:13.390Z,14.27
2018-11-12T16:47:41.871Z,14.60
2018-11-12T16:50:11.578Z,15.17
2018-11-12T16:52:40.023Z,14.43
2018-11-12T16:55:12.534Z,14.37
2018-11-12T16:57:40.945Z,16.30
2018-11-12T17:00:11.146Z,15.70
2018-11-12T17:02:39.619Z,14.93
2018-11-12T17:05:10.032Z,14.43
2018-11-12T17:07:38.494Z,15.93
2018-11-12T17:10:09.194Z,16.40
2018-11-12T17:12:38.010Z,16.33
2018-11-12T17:15:06.803Z,15.63
2018-11-12T17:17:35.323Z,14.93
2018-11-12T17:20:03.747Z,14.67
2018-11-12T17:22:32.192Z,16.73
2018-11-12T17:25:00.694Z,16.77
2018-11-12T17:27:29.115Z,15.50
2018-11-12T17:29:57.535Z,15.40
2018-11-12T17:32:25.995Z,14.90
2018-11-12T17:34:54.512Z,14.13
2018-11-12T17:37:22.979Z,14.40
2018-11-12T17:39:51.410Z,15.17
2018-11-12T17:42:19.858Z,16.80
2018-11-12T17:44:48.311Z,15.10
2018-11-12T17:47:16.766Z,14.73
2018-11-12T17:49:45.202Z,14.20
2018-11-12T17:52:13.829Z,14.80
2018-11-12T17:54:42.274Z,14.50
2018-11-12T17:57:10.746Z,15.00
2018-11-12T17:59:39.202Z,15.77
2018-11-12T18:02:07.748Z,14.77
2018-11-12T18:04:36.227Z,15.40
2018-11-12T18:07:04.831Z,14.00
2018-11-12T18:09:33.297Z,15.00
2018-11-12T18:12:01.911Z,15.30
2018-11-12T18:14:30.637Z,15.07
2018-11-12T18:16:59.145Z,15.00
2018-11-12T18:19:27.800Z,15.07
2018-11-12T18:21:56.486Z,16.23
2018-11-12T18:24:25.061Z,15.90
2018-11-12T18:26:53.639Z,14.97
2018-11-12T18:29:22.423Z,15.90
2018-11-12T18:31:51.199Z,14.77
2018-11-12T18:34:19.819Z,14.37
2018-11-12T20:26:22.478Z,17.00
2018-11-12T20:28:51.038Z,18.97
2018-11-12T20:31:20.577Z,19.00
2018-11-12T20:33:49.802Z,18.30
2018-11-12T20:36:19.087Z,19.90
2018-11-12T20:38:51.633Z,17.43
2018-11-12T20:41:20.795Z,17.30
2018-11-12T20:43:50.700Z,18.40
2018-11-12T20:46:19.365Z,18.00
2018-11-12T20:48:48.026Z,18.10
2018-11-12T20:51:18.070Z,20.23
2018-11-12T20:53:46.891Z,17.77
2018-11-12T20:56:15.505Z,19.27
2018-11-12T20:58:43.981Z,19.17
2018-11-12T21:01:15.345Z,18.37
2018-11-12T21:03:47.713Z,17.73
2018-11-12T21:06:17.841Z,17.77
2018-11-12T21:08:46.263Z,17.53
2018-11-12T21:11:14.758Z,18.83
2018-11-12T21:13:43.192Z,16.97
2018-11-12T21:16:11.666Z,16.37
2018-11-12T21:18:40.246Z,16.57
2018-11-12T21:21:08.828Z,16.10
2018-11-12T21:23:37.299Z,16.30
2018-11-12T21:26:06.177Z,15.03
2018-11-12T21:28:34.582Z,15.20
2018-11-12T21:31:05.967Z,15.33
2018-11-12T21:33:34.422Z,16.17
2018-11-12T21:36:04.467Z,16.63
2018-11-12T21:38:33.081Z,15.97
2018-11-12T21:41:03.429Z,16.23
2018-11-12T21:43:32.963Z,14.23
2018-11-12T21:46:04.998Z,14.40
2018-11-12T21:48:33.465Z,14.20
2018-11-12T21:51:04.718Z,12.93
2018-11-12T21:53:33.266Z,13.80
2018-11-12T21:56:05.873Z,11.93
2018-11-12T21:58:34.413Z,11.57
2018-11-12T22:01:09.039Z,11.10
2018-11-12T22:03:37.569Z,10.37
2018-11-12T22:06:06.086Z,9.90
2018-11-12T22:08:34.568Z,9.37
2018-11-12T22:11:05.231Z,7.50
2018-11-12T22:13:33.678Z,7.13
2018-11-12T22:16:04.449Z,6.87
2018-11-12T22:18:33.182Z,7.20
2018-11-12T22:21:03.683Z,6.20
2018-11-12T22:23:32.174Z,6.20
2018-11-12T22:26:00.590Z,5.87
2018-11-12T22:28:28.985Z,6.13
2018-11-12T22:30:57.411Z,6.03
2018-11-12T22:33:25.822Z,5.63
2018-11-12T22:35:54.218Z,5.77
2018-11-12T22:38:22.875Z,5.50
2018-11-12T22:40:51.311Z,5.47
2018-11-12T22:43:19.698Z,5.50
2018-11-12T22:45:48.155Z,5.90
2018-11-12T22:48:16.547Z,5.63
2018-11-12T22:50:45.346Z,5.47
2018-11-12T22:53:13.743Z,5.53
2018-11-12T22:55:42.162Z,5.50
2018-11-12T22:58:10.606Z,5.23
2018-11-12T23:00:40.670Z,5.20
2018-11-12T23:03:09.493Z,5.23
2018-11-12T23:05:37.889Z,5.60
2018-11-12T23:08:06.569Z,5.80
2018-11-12T23:10:34.975Z,5.70
2018-11-12T23:13:06.303Z,6.33
2018-11-12T23:15:34.762Z,6.00
2018-11-12T23:18:06.717Z,7.37
2018-11-12T23:20:35.134Z,6.80
2018-11-12T23:23:06.086Z,6.10
2018-11-12T23:25:34.506Z,7.07
2018-11-12T23:28:05.122Z,6.70
2018-11-12T23:30:33.510Z,7.00
2018-11-12T23:33:04.266Z,6.90
2018-11-12T23:35:32.661Z,6.40
2018-11-12T23:38:04.407Z,6.27
2018-11-12T23:40:32.806Z,6.53
2018-11-12T23:43:03.619Z,6.77
2018-11-12T23:45:32.014Z,6.70
2018-11-12T23:48:00.442Z,6.03
2018-11-12T23:50:28.838Z,6.43
2018-11-12T23:52:57.271Z,6.37
2018-11-12T23:55:25.678Z,7.07
2018-11-12T23:57:54.071Z,6.90
